VLVTVDSR

Guest
Details From VLVT - Vientiane Wattay
To VDSR - Siem Reap
Flight Number -
Tags generated
Created
Modified
Stats Distance 309 nm / 573 km
Max Altitude 35,000 ft / 10,668 m
Waypoints 6
Social Downloads 1
Likes 0
Share VATSIM

Download

Looking for another format? Having issues loading an existing format? Contact us
Advertisement - Login to hide

Notes

Basic altitude profile: - Ascent Rate: 1500ft/min - Ascent Speed: 250kts - Cruise Altitude: 21000ft - Cruise Speed: 270kts - Descent Rate: 1500ft/min - Descent Speed: 250kts Options: - Use NATs: yes - Use PACOTS: yes - Use low airways: yes - Use high airways: yes

Route

VLVT UDN R470 ROT W38 BRM RAMBU VDSR

ID Type Via Altitude Latitude Longitude Leg Dist Tot Dist Heading (true) Name
O VLVT APT - 0 ft / 0 m 17.98834˚ 102.56322˚ - 0 nm - Vientiane Wattay
UDN VOR - 13,600 ft / 4,145 m 17.38450˚ 102.77501˚ 38 nm 38 nm 161° / 162° UDON VOR-DME
ROT VOR R470 (AWY-LO) 35,000 ft / 10,668 m 16.11683˚ 103.77207˚ 95 nm 133 nm 143° / 143° ROI ET VOR-DME
BRM VOR W38 (AWY-HI) 24,600 ft / 7,498 m 15.23956˚ 103.25878˚ 60 nm 194 nm 209° / 209° BURI RAM VOR-DME
RAMBU FIX - 21,900 ft / 6,675 m 15.06423˚ 103.38787˚ 12 nm 206 nm 145° / 145° -
O VDSR APT - 0 ft / 0 m 13.41067˚ 103.81283˚ 102 nm 309 nm 166° / 166° Siem Reap

Altitude Profile

Advertisement - Login to hide

Weather


0- 5 10 15 20 25 30 35+ Temperature / ° C

Clouds and Precipitation
Forecast for 2017-12-16 12:00 UTC. Updated 22 minutes ago

Ground ~20,000 ft ~40,000 ft Winds

VLVT

Details ICAO VLVT (VTE)
Name Vientiane Wattay
Region Laos
Timezone Asia/Vientiane (UTC+7.0)
Stats Elevation 1,850 ft / 564 m (AMSL)
Location 17.988343° 102.563222°
Runways 1
Magnetic Variation 0.900° W

METAR

VLVT 160730Z 04006KT 8000 SCT020 28/19 Q1015 NOSIG

Decode

TAF

TAF TAF VLVT 160500Z 1606/1706 09006KT 8000 FEW020 SCT050 TEMPO 1612/1618 4000 BR SCT050 FEW200

Decode

Departure Runways

ID Width Length Bearing (true) Bearing (mag) Surface Threshold Offset Overrun Length
13 148 ft / 45 m 9,862 ft / 3,006 m 135.42° 136.32° Asphalt 0 ft / 0 m 0 ft / 0 m
31 148 ft / 45 m 9,862 ft / 3,006 m 315.42° 316.32° Asphalt 0 ft / 0 m 0 ft / 0 m

VDSR

Details ICAO VDSR (REP)
Name Siem Reap
Region Cambodia
Timezone Asia/Phnom_Penh (UTC+7.0)
Stats Elevation 60 ft / 18 m (AMSL)
Location 13.410667° 103.812832°
Runways 1
Magnetic Variation 0.619° W

METAR

VDSR 160730Z 05004KT 360V110 9999 SCT017 32/19 Q1010

Decode

TAF

Not found

Destination Runways

ID Width Length Bearing (true) Bearing (mag) Surface Threshold Offset Overrun Length
05 148 ft / 45 m 8,384 ft / 2,555 m 47.81° 48.43° Concrete 450 ft / 137 m 0 ft / 0 m
23 148 ft / 45 m 8,384 ft / 2,555 m 227.82° 228.44° Concrete 450 ft / 137 m 0 ft / 0 m

Popular Alternatives